Time;durP1;ratioP1;P1;durP2;ratioP2;P2;SDS_P1;SDS_P2;PMS_P1;PMS_P2;Temp;Humidity;BMP_temperature;BMP_pressure;BME280_temperature;BME280_humidity;BME280_pressure;Samples;Min_cycle;Max_cycle;Signal;HPM_P1;HPM_P2
2023/06/12 00:01:48;;;;;;;0.20;0.20;;;20.20;68.20;;;;;;4850052;29;20378;-83
2023/06/12 00:04:14;;;;;;;0.20;0.20;;;20.10;68.20;;;;;;4851329;29;20052;-83
2023/06/12 00:06:43;;;;;;;0.20;0.20;;;20.10;68.30;;;;;;4854955;29;20114;-82
2023/06/12 00:09:09;;;;;;;0.20;0.20;;;20.00;68.20;;;;;;4837414;29;20053;-83
2023/06/12 00:11:35;;;;;;;0.20;0.20;;;20.10;68.40;;;;;;4855933;29;20428;-83
2023/06/12 00:14:01;;;;;;;0.20;0.20;;;20.00;68.40;;;;;;4855884;29;20041;-84
2023/06/12 00:16:27;;;;;;;0.20;0.20;;;19.90;68.40;;;;;;4834580;29;20073;-83
2023/06/12 00:18:52;;;;;;;0.10;0.10;;;19.90;68.50;;;;;;4836846;29;20042;-83
2023/06/12 00:21:23;;;;;;;0.20;0.20;;;19.90;68.50;;;;;;4837453;29;20566;-83
2023/06/12 00:23:49;;;;;;;0.20;0.20;;;19.80;68.50;;;;;;4835823;29;20133;-83
2023/06/12 00:26:14;;;;;;;0.20;0.20;;;19.80;69.00;;;;;;4836666;29;20072;-82
2023/06/12 00:28:40;;;;;;;0.20;0.20;;;19.70;68.80;;;;;;4853682;29;20073;-85
2023/06/12 00:31:06;;;;;;;0.20;0.20;;;19.70;68.90;;;;;;4841248;29;20041;-83
2023/06/12 00:33:32;;;;;;;0.20;0.20;;;19.70;69.00;;;;;;4831593;29;20050;-83
2023/06/12 00:35:57;;;;;;;0.20;0.20;;;19.60;69.20;;;;;;4850263;29;20042;-83
2023/06/12 00:38:23;;;;;;;0.20;0.20;;;19.60;69.20;;;;;;4839677;29;20049;-83
2023/06/12 00:40:49;;;;;;;0.20;0.20;;;19.60;69.30;;;;;;4855575;29;20050;-83
2023/06/12 00:43:15;;;;;;;0.20;0.20;;;19.50;69.20;;;;;;4856313;29;20048;-83
2023/06/12 00:45:41;;;;;;;0.20;0.20;;;19.50;69.40;;;;;;4849928;29;20058;-83
2023/06/12 00:48:23;;;;;;;0.20;0.20;;;19.40;69.40;;;;;;4825651;29;20065;-83
2023/06/12 00:50:49;;;;;;;0.20;0.20;;;19.40;69.40;;;;;;4845751;29;20069;-83
2023/06/12 00:53:15;;;;;;;0.20;0.20;;;19.30;69.40;;;;;;4837707;29;20041;-84
2023/06/12 00:55:41;;;;;;;0.20;0.20;;;19.30;69.50;;;;;;4831860;29;21949;-84
2023/06/12 00:58:45;;;;;;;0.20;0.20;;;19.30;69.60;;;;;;4831156;29;20049;-83
2023/06/12 01:01:11;;;;;;;0.20;0.20;;;19.30;69.70;;;;;;4829465;29;20053;-84
2023/06/12 01:03:38;;;;;;;0.20;0.20;;;19.20;69.80;;;;;;4839083;29;20169;-83
2023/06/12 01:06:09;;;;;;;0.10;0.10;;;19.20;69.90;;;;;;4854769;29;20045;-83
2023/06/12 01:08:35;;;;;;;;;;;19.10;69.90;;;;;;4857080;29;20059;-83
2023/06/12 01:14:45;;;;;;;0.20;0.20;;;19.00;70.10;;;;;;4867504;23;20072;-84
2023/06/12 01:17:11;;;;;;;0.20;0.20;;;19.00;70.20;;;;;;4840422;29;20064;-84
2023/06/12 01:19:37;;;;;;;0.20;0.20;;;18.90;70.20;;;;;;4831747;29;20045;-83
2023/06/12 01:22:08;;;;;;;0.20;0.20;;;18.90;70.40;;;;;;4844117;29;20045;-83
2023/06/12 01:25:00;;;;;;;;;;;18.90;70.50;;;;;;4827724;29;20173;-82
2023/06/12 01:27:41;;;;;;;0.20;0.20;;;18.80;70.50;;;;;;4824443;29;19939;-83
2023/06/12 01:30:27;;;;;;;0.20;0.20;;;18.80;70.80;;;;;;4831204;29;20136;-83
2023/06/12 01:32:56;;;;;;;0.20;0.20;;;18.80;71.10;;;;;;4823891;29;20053;-83
2023/06/12 01:35:25;;;;;;;0.20;0.20;;;18.70;71.20;;;;;;4825130;29;20458;-83
2023/06/12 01:37:54;;;;;;;0.20;0.20;;;18.70;71.40;;;;;;4829202;29;20186;-83
2023/06/12 01:40:22;;;;;;;0.20;0.20;;;18.60;71.50;;;;;;4846025;29;20045;-82
2023/06/12 01:42:48;;;;;;;0.20;0.20;;;18.60;71.70;;;;;;4828604;29;20042;-82
2023/06/12 01:45:13;;;;;;;0.20;0.20;;;18.50;71.90;;;;;;4826908;29;20084;-83
2023/06/12 01:47:39;;;;;;;0.20;0.20;;;18.40;72.00;;;;;;4844452;29;20073;-83
2023/06/12 01:50:06;;;;;;;0.20;0.20;;;18.40;72.10;;;;;;4847690;29;20383;-83
2023/06/12 01:52:34;;;;;;;0.20;0.20;;;18.40;72.30;;;;;;4830447;29;20030;-84
2023/06/12 01:55:02;;;;;;;0.20;0.20;;;18.30;72.30;;;;;;4846988;29;20041;-83
2023/06/12 01:57:28;;;;;;;0.10;0.10;;;18.30;72.40;;;;;;4822973;29;20183;-84
2023/06/12 01:59:53;;;;;;;0.20;0.20;;;18.20;72.40;;;;;;4835130;29;20521;-83
2023/06/12 02:02:20;;;;;;;0.20;0.20;;;18.20;72.40;;;;;;4828939;29;20061;-83
2023/06/12 02:04:46;;;;;;;0.20;0.20;;;18.20;72.60;;;;;;4847041;29;20402;-83
2023/06/12 02:07:12;;;;;;;0.20;0.20;;;18.10;72.60;;;;;;4844812;29;20038;-83
2023/06/12 02:09:38;;;;;;;0.20;0.20;;;18.10;72.70;;;;;;4853790;29;20046;-84
2023/06/12 02:12:04;;;;;;;0.20;0.20;;;18.10;72.80;;;;;;4824178;29;20053;-83
2023/06/12 02:14:30;;;;;;;0.20;0.20;;;18.00;72.80;;;;;;4827231;29;20069;-83
2023/06/12 02:16:56;;;;;;;0.20;0.20;;;18.00;72.90;;;;;;4824760;29;20065;-83
2023/06/12 02:19:25;;;;;;;0.20;0.20;;;18.00;73.00;;;;;;4853270;29;20045;-83
2023/06/12 02:21:57;;;;;;;0.20;0.20;;;17.90;73.00;;;;;;4845783;29;20080;-83
2023/06/12 02:24:26;;;;;;;0.20;0.20;;;17.90;73.20;;;;;;4832635;29;20085;-84
2023/06/12 02:26:52;;;;;;;0.20;0.20;;;17.90;73.20;;;;;;4839172;29;20049;-83
2023/06/12 02:29:17;;;;;;;0.20;0.20;;;17.80;73.30;;;;;;4825651;29;20098;-83
2023/06/12 02:31:43;;;;;;;0.20;0.20;;;17.80;73.50;;;;;;4843845;29;20132;-85
2023/06/12 02:34:09;;;;;;;0.20;0.20;;;17.80;73.60;;;;;;4843807;29;20068;-83
2023/06/12 02:36:39;;;;;;;0.10;0.10;;;17.70;73.70;;;;;;4826282;29;20136;-84
2023/06/12 02:39:08;;;;;;;0.20;0.20;;;17.70;73.80;;;;;;4846642;29;20056;-83
2023/06/12 02:41:38;;;;;;;0.20;0.20;;;17.70;73.90;;;;;;4843549;29;20120;-84
2023/06/12 02:44:04;;;;;;;0.20;0.20;;;17.70;74.00;;;;;;4857706;29;20409;-84
2023/06/12 02:46:29;;;;;;;0.20;0.20;;;17.60;74.10;;;;;;4848810;29;20125;-83
2023/06/12 02:48:55;;;;;;;0.20;0.20;;;17.60;74.30;;;;;;4822419;29;20049;-83
2023/06/12 02:51:20;;;;;;;0.20;0.20;;;17.60;74.50;;;;;;4830932;29;20085;-84
2023/06/12 02:53:46;;;;;;;0.20;0.20;;;17.50;74.60;;;;;;4822242;29;20057;-84
2023/06/12 02:56:12;;;;;;;0.28;0.28;;;17.50;74.70;;;;;;4842375;29;20038;-83
2023/06/12 02:58:39;;;;;;;0.20;0.20;;;17.50;74.90;;;;;;4834433;29;20053;-83
2023/06/12 03:01:06;;;;;;;0.20;0.20;;;17.50;75.10;;;;;;4828322;29;20050;-83
2023/06/12 03:03:31;;;;;;;0.20;0.20;;;17.40;75.20;;;;;;4832531;29;20045;-84
2023/06/12 03:05:57;;;;;;;0.20;0.20;;;17.40;75.30;;;;;;4852531;29;20045;-83
2023/06/12 03:08:23;;;;;;;0.20;0.20;;;17.40;75.50;;;;;;4823649;29;20045;-84
2023/06/12 03:10:48;;;;;;;0.20;0.20;;;17.40;75.60;;;;;;4845670;29;20064;-83
2023/06/12 03:13:14;;;;;;;0.20;0.20;;;17.30;76.30;;;;;;4841791;29;20057;-83
2023/06/12 03:15:40;;;;;;;0.20;0.20;;;17.30;75.90;;;;;;4840344;29;20396;-83
2023/06/12 03:18:06;;;;;;;0.20;0.20;;;17.30;76.10;;;;;;4807359;29;20061;-84
2023/06/12 03:20:33;;;;;;;0.20;0.20;;;17.30;76.30;;;;;;4872639;23;20080;-85
2023/06/12 03:23:02;;;;;;;0.20;0.20;;;17.20;76.50;;;;;;4831631;29;20098;-84
2023/06/12 03:25:27;;;;;;;0.20;0.20;;;17.20;76.70;;;;;;4852172;29;20049;-85
2023/06/12 03:27:53;;;;;;;0.20;0.20;;;17.20;77.00;;;;;;4841297;29;20049;-84
2023/06/12 03:30:19;;;;;;;0.20;0.20;;;17.40;77.30;;;;;;4840313;29;20049;-85
2023/06/12 03:32:46;;;;;;;0.20;0.20;;;17.20;77.60;;;;;;4837766;29;20076;-84
2023/06/12 03:35:11;;;;;;;0.10;0.10;;;17.20;77.70;;;;;;4840167;29;20041;-85
2023/06/12 03:37:37;;;;;;;0.20;0.20;;;17.20;78.10;;;;;;4839445;29;20523;-84
2023/06/12 03:40:04;;;;;;;0.20;0.20;;;17.20;78.10;;;;;;4847685;29;20056;-85
2023/06/12 03:42:30;;;;;;;0.10;0.10;;;17.10;78.30;;;;;;4855955;29;20387;-85
2023/06/12 03:44:56;;;;;;;0.20;0.20;;;17.10;78.50;;;;;;4857044;29;20052;-83
2023/06/12 03:47:21;;;;;;;0.10;0.10;;;17.20;78.80;;;;;;4854623;29;20451;-84
2023/06/12 03:49:47;;;;;;;0.20;0.20;;;17.10;78.90;;;;;;4838101;29;20129;-84
2023/06/12 03:52:13;;;;;;;0.20;0.20;;;17.10;79.10;;;;;;4840549;29;20057;-84
2023/06/12 03:54:39;;;;;;;0.20;0.20;;;17.10;79.30;;;;;;4839913;29;20046;-83
2023/06/12 03:57:05;;;;;;;0.20;0.20;;;17.20;79.70;;;;;;4840634;29;20045;-83
2023/06/12 03:59:30;;;;;;;0.20;0.20;;;17.20;79.90;;;;;;4838589;29;20053;-84
2023/06/12 04:01:58;;;;;;;0.20;0.20;;;17.20;80.10;;;;;;4854038;29;20037;-83
2023/06/12 04:04:24;;;;;;;0.20;0.20;;;17.20;80.30;;;;;;4848481;29;20494;-83
2023/06/12 04:06:50;;;;;;;0.20;0.20;;;17.20;80.50;;;;;;4839209;29;20121;-83
2023/06/12 04:09:16;;;;;;;0.20;0.20;;;17.20;80.80;;;;;;4834034;29;20457;-84
2023/06/12 04:11:46;;;;;;;0.20;0.20;;;17.20;81.00;;;;;;4838204;29;20136;-84
2023/06/12 04:14:12;;;;;;;0.20;0.20;;;17.20;81.20;;;;;;4830766;29;20049;-84
2023/06/12 04:16:38;;;;;;;0.10;0.10;;;17.20;81.40;;;;;;4850337;29;20570;-83
2023/06/12 04:19:04;;;;;;;0.20;0.20;;;17.20;81.60;;;;;;4852775;29;20121;-84
2023/06/12 04:21:33;;;;;;;0.20;0.20;;;17.20;81.80;;;;;;4839014;29;20061;-84
2023/06/12 04:24:03;;;;;;;0.20;0.20;;;17.20;82.10;;;;;;4850516;29;21722;-84
2023/06/12 04:26:31;;;;;;;0.20;0.20;;;17.20;82.30;;;;;;4840028;29;20046;-84
2023/06/12 04:28:57;;;;;;;0.20;0.20;;;17.20;82.50;;;;;;4852114;29;20049;-84
2023/06/12 04:31:29;;;;;;;0.20;0.20;;;17.20;82.90;;;;;;4838536;29;20053;-84
2023/06/12 04:33:58;;;;;;;0.10;0.10;;;17.20;83.10;;;;;;4854897;29;20072;-83
2023/06/12 04:36:25;;;;;;;0.20;0.20;;;17.40;83.40;;;;;;4852609;29;20112;-82
2023/06/12 04:38:51;;;;;;;0.20;0.20;;;17.30;83.70;;;;;;4851342;29;20041;-83
2023/06/12 04:41:24;;;;;;;0.10;0.10;;;17.20;83.80;;;;;;4851576;29;20042;-85
2023/06/12 04:43:51;;;;;;;0.20;0.20;;;17.30;84.10;;;;;;4843254;29;20056;-83
2023/06/12 04:46:20;;;;;;;0.10;0.10;;;17.30;84.30;;;;;;4842724;29;20042;-84
2023/06/12 04:48:46;;;;;;;0.20;0.20;;;17.30;84.40;;;;;;4858300;29;20397;-84
2023/06/12 04:51:13;;;;;;;0.10;0.10;;;17.30;84.60;;;;;;4858955;29;20101;-84
2023/06/12 04:53:40;;;;;;;0.17;0.17;;;17.40;84.80;;;;;;4843069;29;20469;-84
2023/06/12 04:56:08;;;;;;;0.20;0.20;;;17.40;85.00;;;;;;4859559;29;20129;-83
2023/06/12 04:58:35;;;;;;;0.20;0.20;;;17.40;85.30;;;;;;4860277;29;20053;-84
2023/06/12 05:01:00;;;;;;;0.15;0.15;;;17.40;85.50;;;;;;4852389;29;20413;-83
2023/06/12 05:03:27;;;;;;;0.10;0.10;;;17.40;85.80;;;;;;4840289;29;20057;-83
2023/06/12 05:05:52;;;;;;;0.20;0.20;;;17.40;86.10;;;;;;4843236;29;20084;-83
2023/06/12 05:08:18;;;;;;;0.20;0.20;;;17.50;86.50;;;;;;4850472;29;20549;-84
2023/06/12 05:10:43;;;;;;;0.20;0.20;;;17.50;86.60;;;;;;4833637;29;20069;-83
2023/06/12 05:13:09;;;;;;;0.10;0.10;;;17.50;87.00;;;;;;4848676;29;20120;-83
2023/06/12 05:15:35;;;;;;;0.15;0.15;;;17.50;87.40;;;;;;4832062;29;20050;-83
2023/06/12 05:18:01;;;;;;;0.20;0.20;;;17.60;87.80;;;;;;4859773;29;20575;-83
2023/06/12 05:20:29;;;;;;;0.20;0.20;;;16.80;87.80;;;;;;4858480;29;20054;-83
2023/06/12 05:22:55;;;;;;;0.20;0.20;;;18.40;88.30;;;;;;4844151;29;20061;-83
2023/06/12 05:25:21;;;;;;;0.20;0.20;;;17.60;88.40;;;;;;4857971;29;20052;-83
2023/06/12 05:27:47;;;;;;;0.20;0.20;;;17.80;89.00;;;;;;4841542;29;20049;-83
2023/06/12 05:30:12;;;;;;;0.20;0.20;;;17.70;88.70;;;;;;4840647;29;20060;-84
2023/06/12 05:32:41;;;;;;;0.20;0.20;;;17.70;88.90;;;;;;4841932;29;20047;-86
2023/06/12 05:35:07;;;;;;;0.20;0.20;;;17.70;89.20;;;;;;4839463;29;20054;-82
2023/06/12 05:37:33;;;;;;;0.15;0.15;;;17.80;89.50;;;;;;4857144;29;20073;-83
2023/06/12 05:39:59;;;;;;;0.10;0.10;;;17.70;89.80;;;;;;4841461;29;20472;-83
2023/06/12 05:42:25;;;;;;;0.17;0.17;;;17.80;90.00;;;;;;4857229;29;20077;-83
2023/06/12 05:44:51;;;;;;;0.20;0.20;;;17.80;90.10;;;;;;4841974;29;20492;-83
2023/06/12 05:47:16;;;;;;;0.20;0.20;;;17.80;90.20;;;;;;4859648;29;20041;-84
2023/06/12 05:49:42;;;;;;;0.15;0.15;;;17.90;90.40;;;;;;4839703;29;20185;-83
2023/06/12 05:52:08;;;;;;;0.20;0.20;;;17.90;90.60;;;;;;4841275;29;20056;-84
2023/06/12 05:54:34;;;;;;;0.10;0.10;;;17.90;90.60;;;;;;4842641;29;20096;-82
2023/06/12 05:57:01;;;;;;;0.20;0.20;;;18.00;90.80;;;;;;4858187;29;20114;-83
2023/06/12 05:59:27;;;;;;;0.20;0.20;;;18.10;90.90;;;;;;4839702;29;20056;-83
2023/06/12 06:01:54;;;;;;;0.20;0.20;;;18.10;91.00;;;;;;4839561;29;20041;-83
2023/06/12 06:04:20;;;;;;;0.20;0.20;;;18.20;91.10;;;;;;4836835;29;20168;-82
2023/06/12 06:06:47;;;;;;;0.20;0.20;;;18.20;91.20;;;;;;4857125;29;20470;-83
2023/06/12 06:09:14;;;;;;;0.20;0.20;;;18.30;91.20;;;;;;4857454;29;20062;-83
2023/06/12 06:11:40;;;;;;;0.20;0.20;;;18.10;91.30;;;;;;4859799;29;20053;-84
2023/06/12 06:14:09;;;;;;;0.13;0.13;;;18.50;91.50;;;;;;4842434;29;20041;-84
2023/06/12 06:16:34;;;;;;;0.20;0.20;;;18.50;91.40;;;;;;4839298;29;20087;-83
2023/06/12 06:19:00;;;;;;;0.15;0.15;;;18.60;91.40;;;;;;4847631;29;20051;-84
2023/06/12 06:21:26;;;;;;;0.20;0.20;;;18.00;91.10;;;;;;4840619;29;20069;-83
2023/06/12 06:23:52;;;;;;;0.20;0.20;;;18.70;91.20;;;;;;4860242;29;20391;-84
2023/06/12 06:26:17;;;;;;;0.20;0.20;;;18.70;91.10;;;;;;4857144;29;20049;-83
2023/06/12 06:28:46;;;;;;;0.20;0.20;;;18.80;91.20;;;;;;4835907;29;20043;-79
2023/06/12 06:31:12;;;;;;;0.20;0.20;;;18.90;91.10;;;;;;4836562;29;20573;-80
2023/06/12 06:33:38;;;;;;;0.20;0.20;;;19.00;91.10;;;;;;4838773;29;20132;-79
2023/06/12 06:36:04;;;;;;;0.20;0.20;;;19.00;91.00;;;;;;4856209;29;20041;-79
2023/06/12 06:38:29;;;;;;;0.13;0.13;;;19.10;90.90;;;;;;4856632;29;20113;-80
2023/06/12 06:40:55;;;;;;;0.20;0.20;;;19.20;90.90;;;;;;4841129;29;20472;-79
2023/06/12 06:43:21;;;;;;;0.20;0.20;;;19.20;90.80;;;;;;4836292;29;20045;-79
2023/06/12 06:45:46;;;;;;;0.20;0.20;;;19.30;90.70;;;;;;4841366;29;20045;-79
2023/06/12 06:48:13;;;;;;;0.20;0.20;;;19.30;90.60;;;;;;4840397;29;20447;-78
2023/06/12 06:50:39;;;;;;;0.20;0.20;;;19.40;90.60;;;;;;4840670;29;20053;-78
2023/06/12 06:53:05;;;;;;;0.20;0.20;;;19.40;90.60;;;;;;4839719;29;20037;-79
2023/06/12 06:55:33;;;;;;;0.10;0.10;;;19.50;90.70;;;;;;4841938;29;20410;-79
2023/06/12 06:57:59;;;;;;;0.10;0.10;;;19.60;90.60;;;;;;4858441;29;20098;-80
2023/06/12 07:00:26;;;;;;;0.20;0.20;;;19.70;90.60;;;;;;4836363;29;20049;-79
2023/06/12 07:02:52;;;;;;;0.20;0.20;;;19.70;90.50;;;;;;4855008;29;20069;-79
2023/06/12 07:05:18;;;;;;;0.20;0.20;;;19.80;90.50;;;;;;4856020;29;20084;-78
2023/06/12 07:07:47;;;;;;;0.20;0.20;;;19.80;90.60;;;;;;4854586;29;20121;-79
2023/06/12 07:10:13;;;;;;;0.20;0.20;;;19.90;90.50;;;;;;4855059;29;20129;-79
2023/06/12 07:12:38;;;;;;;0.20;0.20;;;20.00;90.60;;;;;;4835149;29;20051;-80
2023/06/12 07:15:05;;;;;;;0.20;0.20;;;20.00;90.50;;;;;;4854095;29;20053;-77
2023/06/12 07:17:31;;;;;;;0.20;0.20;;;20.10;90.50;;;;;;4857358;29;20050;-79
2023/06/12 07:19:57;;;;;;;0.15;0.15;;;20.10;90.40;;;;;;4841414;29;20061;-78
2023/06/12 07:22:22;;;;;;;0.20;0.20;;;20.20;90.40;;;;;;4841180;29;20136;-79
2023/06/12 07:24:48;;;;;;;0.20;0.20;;;20.30;90.50;;;;;;4856679;29;20053;-79
2023/06/12 07:27:14;;;;;;;0.20;0.20;;;20.30;90.40;;;;;;4853482;29;20273;-80
2023/06/12 07:29:39;;;;;;;0.20;0.20;;;20.30;90.30;;;;;;4857279;29;20102;-79
2023/06/12 07:32:06;;;;;;;0.20;0.20;;;20.40;90.20;;;;;;4841612;29;20517;-79
2023/06/12 07:34:31;;;;;;;0.20;0.20;;;20.40;90.30;;;;;;4839519;29;20045;-80
2023/06/12 07:36:58;;;;;;;0.20;0.20;;;20.50;90.30;;;;;;4841204;29;20387;-79
2023/06/12 07:39:24;;;;;;;0.20;0.20;;;20.50;90.20;;;;;;4854477;29;20052;-78
2023/06/12 07:41:50;;;;;;;0.20;0.20;;;20.60;90.30;;;;;;4839721;29;20475;-77
2023/06/12 07:44:16;;;;;;;0.20;0.20;;;20.60;90.50;;;;;;4840396;29;20101;-82
2023/06/12 07:46:42;;;;;;;0.20;0.20;;;20.70;90.50;;;;;;4827151;29;20133;-79
2023/06/12 07:49:08;;;;;;;0.20;0.20;;;20.70;90.50;;;;;;4839523;29;20053;-78
2023/06/12 07:51:33;;;;;;;0.20;0.20;;;20.80;90.50;;;;;;4841794;29;20136;-78
2023/06/12 07:53:59;;;;;;;0.20;0.20;;;20.80;90.50;;;;;;4857206;29;20060;-78
2023/06/12 07:56:25;;;;;;;0.20;0.20;;;20.90;90.60;;;;;;4840706;29;20053;-77
2023/06/12 07:58:51;;;;;;;0.20;0.20;;;20.90;90.60;;;;;;4819290;29;20050;-78
2023/06/12 08:01:18;;;;;;;0.22;0.22;;;21.00;90.70;;;;;;4852145;29;20044;-78
2023/06/12 08:03:43;;;;;;;0.20;0.20;;;21.00;90.60;;;;;;4839595;29;20084;-78
2023/06/12 08:06:13;;;;;;;0.20;0.20;;;21.10;90.60;;;;;;4840777;29;20046;-79
2023/06/12 08:08:43;;;;;;;0.20;0.20;;;21.10;90.60;;;;;;4840556;29;20057;-79
2023/06/12 08:11:09;;;;;;;0.20;0.20;;;21.20;90.60;;;;;;4833914;29;20093;-78
2023/06/12 08:13:35;;;;;;;0.20;0.20;;;21.20;90.60;;;;;;4853308;29;20531;-78
2023/06/12 08:16:02;;;;;;;0.20;0.20;;;21.30;90.70;;;;;;4855226;29;20189;-78
2023/06/12 08:18:28;;;;;;;0.20;0.20;;;21.30;90.80;;;;;;4850199;29;20049;-79
2023/06/12 08:20:53;;;;;;;0.28;0.28;;;21.40;90.60;;;;;;4859596;29;20069;-78
2023/06/12 08:23:20;;;;;;;0.20;0.20;;;21.40;90.40;;;;;;4874651;29;20045;-79
2023/06/12 08:25:45;;;;;;;0.20;0.20;;;21.50;90.40;;;;;;4859205;29;20080;-79
2023/06/12 08:28:12;;;;;;;0.20;0.20;;;21.50;90.20;;;;;;4869217;29;20079;-78
2023/06/12 08:30:38;;;;;;;0.20;0.20;;;21.60;90.10;;;;;;4835267;29;20046;-79
2023/06/12 08:33:03;;;;;;;0.20;0.20;;;21.60;90.00;;;;;;4855190;29;20339;-78
2023/06/12 08:35:29;;;;;;;0.20;0.20;;;21.70;90.10;;;;;;4856445;29;20053;-76
2023/06/12 08:37:56;;;;;;;0.20;0.20;;;21.80;89.90;;;;;;4838117;29;20038;-78
2023/06/12 08:40:22;;;;;;;0.20;0.20;;;21.80;90.00;;;;;;4853583;29;20045;-78
2023/06/12 08:42:51;;;;;;;0.20;0.20;;;21.90;90.00;;;;;;4840468;29;20049;-79
2023/06/12 08:45:19;;;;;;;0.20;0.20;;;21.90;90.00;;;;;;4837653;29;20060;-79
2023/06/12 08:47:48;;;;;;;0.20;0.20;;;22.00;90.00;;;;;;4838372;29;20227;-79
2023/06/12 08:50:17;;;;;;;0.20;0.20;;;22.00;89.90;;;;;;4840264;29;20046;-78
2023/06/12 08:52:44;;;;;;;0.13;0.13;;;22.10;89.70;;;;;;4840429;29;20053;-78
2023/06/12 08:55:13;;;;;;;0.20;0.20;;;22.10;89.60;;;;;;4855083;29;20076;-78
2023/06/12 08:57:39;;;;;;;0.20;0.20;;;22.20;89.90;;;;;;4827750;29;20652;-78
2023/06/12 09:00:12;;;;;;;0.20;0.20;;;22.20;90.00;;;;;;4837259;29;20101;-78
2023/06/12 09:02:49;;;;;;;0.15;0.15;;;22.20;90.00;;;;;;4840292;29;20383;-79
2023/06/12 09:05:19;;;;;;;0.20;0.20;;;22.30;89.90;;;;;;4857058;29;20045;-79
2023/06/12 09:07:46;;;;;;;0.20;0.20;;;22.30;90.00;;;;;;4856705;29;20057;-79
2023/06/12 09:10:13;;;;;;;0.20;0.20;;;22.40;89.90;;;;;;4835564;29;20500;-78
2023/06/12 09:12:43;;;;;;;0.20;0.20;;;22.40;89.80;;;;;;4838241;29;20065;-78
2023/06/12 09:15:09;;;;;;;0.20;0.20;;;22.50;89.70;;;;;;4875168;29;20057;-78
2023/06/12 09:17:37;;;;;;;0.20;0.20;;;22.50;89.20;;;;;;4851080;29;20049;-78
2023/06/12 09:20:06;;;;;;;0.20;0.20;;;22.50;89.00;;;;;;4838383;29;20085;-79
2023/06/12 09:22:33;;;;;;;0.20;0.20;;;22.60;88.90;;;;;;4840163;29;20093;-78
2023/06/12 09:25:05;;;;;;;0.20;0.20;;;22.60;88.60;;;;;;4859600;29;20056;-79
2023/06/12 09:27:40;;;;;;;0.20;0.20;;;22.60;88.20;;;;;;4858176;29;20533;-79
2023/06/12 09:30:08;;;;;;;0.20;0.20;;;22.70;88.20;;;;;;4844220;29;20398;-79
2023/06/12 09:32:33;;;;;;;0.20;0.20;;;22.80;88.20;;;;;;4825754;29;20042;-78
2023/06/12 09:35:01;;;;;;;0.20;0.20;;;22.80;88.30;;;;;;4835554;29;20549;-80
2023/06/12 09:37:26;;;;;;;0.20;0.20;;;22.90;88.20;;;;;;4840872;29;20129;-79
2023/06/12 09:40:08;;;;;;;0.20;0.20;;;22.90;88.20;;;;;;4843928;29;20084;-79
2023/06/12 09:42:35;;;;;;;0.20;0.20;;;23.00;88.30;;;;;;4857824;29;20045;-79
2023/06/12 09:45:13;;;;;;;0.20;0.20;;;23.10;88.20;;;;;;4843119;29;20129;-79
2023/06/12 09:47:41;;;;;;;0.20;0.20;;;23.10;87.60;;;;;;4840184;29;20068;-78
2023/06/12 09:50:06;;;;;;;0.20;0.20;;;23.20;87.40;;;;;;4857381;29;20041;-79
2023/06/12 09:52:33;;;;;;;0.20;0.20;;;23.20;86.90;;;;;;4843785;29;20042;-79
2023/06/12 09:55:02;;;;;;;0.20;0.20;;;23.30;86.70;;;;;;4842814;29;20402;-79
2023/06/12 09:57:27;;;;;;;0.28;0.28;;;23.40;87.10;;;;;;4839975;29;20037;-78
2023/06/12 09:59:56;;;;;;;0.20;0.20;;;23.40;87.20;;;;;;4842518;29;20090;-80
2023/06/12 10:02:21;;;;;;;0.20;0.20;;;23.40;87.20;;;;;;4840397;29;20076;-79
2023/06/12 10:05:06;;;;;;;0.20;0.20;;;23.50;86.60;;;;;;4849014;29;20084;-79
2023/06/12 10:07:38;;;;;;;0.20;0.20;;;23.60;86.60;;;;;;4853154;29;20064;-79
2023/06/12 10:10:07;;;;;;;0.20;0.20;;;23.60;86.40;;;;;;4824428;29;20433;-77
2023/06/12 10:12:34;;;;;;;0.20;0.20;;;23.70;85.90;;;;;;4836756;29;20056;-77
2023/06/12 10:15:05;;;;;;;0.20;0.20;;;23.70;85.80;;;;;;4840445;29;20052;-77
2023/06/12 10:17:31;;;;;;;;;;;23.80;86.00;;;;;;4835956;29;20102;-76
2023/06/12 10:19:58;;;;;;;0.20;0.20;;;23.90;85.40;;;;;;4840573;29;19936;-78
2023/06/12 10:22:23;;;;;;;0.20;0.20;;;23.90;85.30;;;;;;4842943;29;20053;-77
2023/06/12 10:24:50;;;;;;;0.20;0.20;;;24.00;85.40;;;;;;4857387;29;20394;-78
2023/06/12 10:27:18;;;;;;;0.20;0.20;;;24.00;85.40;;;;;;4852416;29;20048;-77
2023/06/12 10:29:43;;;;;;;0.20;0.20;;;24.10;85.50;;;;;;4841108;29;20054;-77
2023/06/12 10:32:10;;;;;;;0.20;0.20;;;24.10;84.90;;;;;;4840216;29;20487;-77
2023/06/12 10:34:41;;;;;;;0.20;0.20;;;24.20;84.60;;;;;;4848617;29;20414;-77
2023/06/12 10:37:31;;;;;;;0.28;0.28;;;24.30;84.70;;;;;;4832935;29;20057;-76
2023/06/12 10:40:10;;;;;;;0.20;0.20;;;24.30;84.10;;;;;;4843929;29;20048;-78
2023/06/12 10:43:01;;;;;;;0.20;0.20;;;24.30;83.70;;;;;;4854943;29;20308;-80
2023/06/12 10:45:36;;;;;;;0.20;0.20;;;24.40;83.50;;;;;;4841586;29;20510;-78
2023/06/12 10:48:08;;;;;;;0.20;0.20;;;24.50;83.20;;;;;;4840498;29;20104;-81
2023/06/12 10:50:38;;;;;;;0.20;0.20;;;24.60;83.10;;;;;;4840185;29;20053;-77
2023/06/12 10:53:11;;;;;;;0.20;0.20;;;24.60;82.70;;;;;;4840457;29;20045;-78
2023/06/12 10:55:37;;;;;;;0.30;0.30;;;24.70;82.80;;;;;;4859305;29;20218;-78
2023/06/12 10:58:07;;;;;;;0.20;0.20;;;24.70;82.30;;;;;;4836721;29;20124;-78
2023/06/12 11:00:38;;;;;;;0.30;0.30;;;24.80;82.00;;;;;;4841161;29;20190;-78
2023/06/12 11:03:12;;;;;;;0.20;0.20;;;25.20;82.20;;;;;;4823278;29;20050;-78
2023/06/12 11:05:39;;;;;;;0.20;0.20;;;24.90;82.00;;;;;;4850762;29;20057;-78
2023/06/12 11:08:09;;;;;;;0.20;0.20;;;25.00;81.90;;;;;;4858630;29;20053;-78
2023/06/12 11:10:35;;;;;;;0.20;0.20;;;25.10;81.50;;;;;;4835859;29;20095;-78
2023/06/12 11:13:05;;;;;;;0.20;0.20;;;25.20;81.50;;;;;;4850895;29;20041;-78
2023/06/12 11:15:45;;;;;;;0.20;0.20;;;25.20;81.50;;;;;;4845676;29;20050;-78
2023/06/12 11:18:12;;;;;;;0.20;0.20;;;25.40;81.50;;;;;;4856229;29;20053;-78
2023/06/12 11:20:37;;;;;;;0.20;0.20;;;25.40;81.10;;;;;;4838030;29;20065;-78
2023/06/12 11:23:05;;;;;;;0.20;0.20;;;25.50;81.00;;;;;;4842223;29;20053;-78
2023/06/12 11:25:44;;;;;;;0.20;0.20;;;25.70;80.80;;;;;;4839030;29;20057;-79
2023/06/12 11:28:12;;;;;;;0.20;0.20;;;25.80;80.40;;;;;;4841062;29;20474;-79
2023/06/12 11:30:42;;;;;;;0.20;0.20;;;25.90;80.20;;;;;;4842422;29;20064;-79
2023/06/12 11:33:16;;;;;;;0.20;0.20;;;25.90;79.60;;;;;;4841037;29;20510;-78
2023/06/12 11:35:43;;;;;;;0.25;0.25;;;26.10;79.60;;;;;;4837393;29;20057;-79
2023/06/12 11:38:12;;;;;;;0.20;0.20;;;26.20;79.70;;;;;;4857285;29;20053;-79
2023/06/12 11:40:39;;;;;;;0.20;0.20;;;26.30;79.80;;;;;;4841508;29;20382;-79
2023/06/12 11:43:06;;;;;;;0.20;0.20;;;26.40;79.50;;;;;;4855875;29;20052;-79
2023/06/12 11:45:32;;;;;;;0.20;0.20;;;26.50;79.20;;;;;;4826278;29;20085;-78
2023/06/12 11:47:59;;;;;;;0.20;0.20;;;26.60;78.90;;;;;;4854261;29;20092;-79
2023/06/12 11:50:25;;;;;;;0.20;0.20;;;26.70;78.50;;;;;;4855707;29;20197;-79
2023/06/12 11:52:51;;;;;;;0.20;0.20;;;26.70;78.50;;;;;;4829334;29;20391;-79
2023/06/12 11:55:17;;;;;;;0.20;0.20;;;26.80;78.60;;;;;;4833608;29;20555;-78
2023/06/12 11:57:50;;;;;;;0.20;0.20;;;27.00;78.80;;;;;;4835212;29;20041;-79
2023/06/12 12:00:18;;;;;;;0.20;0.20;;;27.10;77.60;;;;;;4827169;29;20397;-79
2023/06/12 12:02:58;;;;;;;0.20;0.20;;;27.20;77.30;;;;;;4837856;29;20483;-79
2023/06/12 12:05:24;;;;;;;0.20;0.20;;;27.30;77.00;;;;;;4829299;29;20114;-79
2023/06/12 12:07:59;;;;;;;0.20;0.20;;;27.40;77.00;;;;;;4832300;29;20136;-79
2023/06/12 12:10:30;;;;;;;0.20;0.20;;;27.50;76.90;;;;;;4857132;29;20049;-79
2023/06/12 12:13:00;;;;;;;0.20;0.20;;;27.60;76.30;;;;;;4840215;29;20498;-79
2023/06/12 12:15:27;;;;;;;;;;;27.70;76.00;;;;;;4838704;29;20081;-79
2023/06/12 12:17:53;;;;;;;0.20;0.20;;;27.80;75.50;;;;;;4835680;29;19932;-79
2023/06/12 12:20:21;;;;;;;0.20;0.20;;;27.80;75.40;;;;;;4841414;29;20053;-80
2023/06/12 12:22:52;;;;;;;0.20;0.20;;;27.90;75.20;;;;;;4857319;29;20049;-79
2023/06/12 12:25:23;;;;;;;0.30;0.30;;;28.20;73.40;;;;;;4837663;29;20403;-80
2023/06/12 12:27:51;;;;;;;0.20;0.20;;;28.10;73.60;;;;;;4838612;29;20041;-79
2023/06/12 12:30:18;;;;;;;0.15;0.15;;;28.20;73.20;;;;;;4836560;29;20080;-79
2023/06/12 12:32:49;;;;;;;0.20;0.20;;;28.30;74.00;;;;;;4839872;29;20046;-79
2023/06/12 12:35:16;;;;;;;0.20;0.20;;;28.40;74.00;;;;;;4836013;29;20091;-78
2023/06/12 12:37:45;;;;;;;0.20;0.20;;;28.50;73.60;;;;;;4839050;29;20455;-80
2023/06/12 12:40:13;;;;;;;0.20;0.20;;;28.60;72.30;;;;;;4851607;29;20082;-80
2023/06/12 12:42:49;;;;;;;0.20;0.20;;;28.70;72.40;;;;;;4836359;29;20499;-80
2023/06/12 12:45:16;;;;;;;0.20;0.20;;;28.70;72.40;;;;;;4836332;29;20076;-80
2023/06/12 12:47:48;;;;;;;0.20;0.20;;;28.90;72.70;;;;;;4854027;29;20077;-80
2023/06/12 12:50:17;;;;;;;0.20;0.20;;;29.00;72.70;;;;;;4837742;29;20057;-79
2023/06/12 12:52:42;;;;;;;0.20;0.20;;;29.10;72.50;;;;;;4839676;29;20052;-79
2023/06/12 12:55:08;;;;;;;0.20;0.20;;;29.20;71.90;;;;;;4838820;29;20049;-79